sensor_id;sensor_type;location;lat;lon;timestamp;P1;durP1;ratioP1;P2;durP2;ratioP2
71290;SDS011;59073;51.994;4.448;2024-01-30T00:01:00;8.47;;;8.46;;
71290;SDS011;59073;51.994;4.448;2024-01-30T00:03:25;8.94;;;8.92;;
71290;SDS011;59073;51.994;4.448;2024-01-30T00:05:50;8.55;;;8.54;;
71290;SDS011;59073;51.994;4.448;2024-01-30T00:08:16;8.82;;;8.80;;
71290;SDS011;59073;51.994;4.448;2024-01-30T00:10:42;8.99;;;8.99;;
71290;SDS011;59073;51.994;4.448;2024-01-30T00:13:07;8.92;;;8.92;;
71290;SDS011;59073;51.994;4.448;2024-01-30T00:15:32;8.81;;;8.81;;
71290;SDS011;59073;51.994;4.448;2024-01-30T00:17:58;8.31;;;8.31;;
71290;SDS011;59073;51.994;4.448;2024-01-30T00:20:23;8.65;;;8.65;;
71290;SDS011;59073;51.994;4.448;2024-01-30T00:22:49;8.70;;;8.70;;
71290;SDS011;59073;51.994;4.448;2024-01-30T00:25:14;7.95;;;7.95;;
71290;SDS011;59073;51.994;4.448;2024-01-30T00:27:40;8.69;;;8.69;;
71290;SDS011;59073;51.994;4.448;2024-01-30T00:30:06;8.58;;;8.51;;
71290;SDS011;59073;51.994;4.448;2024-01-30T00:32:31;8.84;;;8.84;;
71290;SDS011;59073;51.994;4.448;2024-01-30T00:34:57;8.27;;;8.27;;
71290;SDS011;59073;51.994;4.448;2024-01-30T00:37:22;8.53;;;8.53;;
71290;SDS011;59073;51.994;4.448;2024-01-30T00:39:48;8.44;;;8.44;;
71290;SDS011;59073;51.994;4.448;2024-01-30T00:42:14;9.01;;;9.01;;
71290;SDS011;59073;51.994;4.448;2024-01-30T00:44:39;8.13;;;8.13;;
71290;SDS011;59073;51.994;4.448;2024-01-30T00:47:05;8.21;;;8.21;;
71290;SDS011;59073;51.994;4.448;2024-01-30T00:49:31;7.72;;;7.70;;
71290;SDS011;59073;51.994;4.448;2024-01-30T00:51:56;7.45;;;7.43;;
71290;SDS011;59073;51.994;4.448;2024-01-30T00:54:22;7.89;;;7.88;;
71290;SDS011;59073;51.994;4.448;2024-01-30T00:56:47;7.06;;;7.06;;
71290;SDS011;59073;51.994;4.448;2024-01-30T00:59:12;7.27;;;7.27;;
71290;SDS011;59073;51.994;4.448;2024-01-30T01:01:38;7.00;;;7.00;;
71290;SDS011;59073;51.994;4.448;2024-01-30T01:04:03;7.01;;;7.01;;
71290;SDS011;59073;51.994;4.448;2024-01-30T01:06:29;7.34;;;7.33;;
71290;SDS011;59073;51.994;4.448;2024-01-30T01:08:54;7.30;;;7.27;;
71290;SDS011;59073;51.994;4.448;2024-01-30T01:11:20;7.77;;;7.60;;
71290;SDS011;59073;51.994;4.448;2024-01-30T01:13:45;7.13;;;7.09;;
71290;SDS011;59073;51.994;4.448;2024-01-30T01:16:10;6.35;;;6.33;;
71290;SDS011;59073;51.994;4.448;2024-01-30T01:18:36;7.26;;;7.23;;
71290;SDS011;59073;51.994;4.448;2024-01-30T01:21:01;7.60;;;7.51;;
71290;SDS011;59073;51.994;4.448;2024-01-30T01:23:27;7.01;;;7.01;;
71290;SDS011;59073;51.994;4.448;2024-01-30T01:25:52;7.21;;;7.21;;
71290;SDS011;59073;51.994;4.448;2024-01-30T01:28:18;7.20;;;7.20;;
71290;SDS011;59073;51.994;4.448;2024-01-30T01:30:44;7.42;;;7.42;;
71290;SDS011;59073;51.994;4.448;2024-01-30T01:33:10;7.45;;;7.45;;
71290;SDS011;59073;51.994;4.448;2024-01-30T01:35:35;6.89;;;6.89;;
71290;SDS011;59073;51.994;4.448;2024-01-30T01:38:01;7.08;;;7.08;;
71290;SDS011;59073;51.994;4.448;2024-01-30T01:40:27;7.06;;;7.06;;
71290;SDS011;59073;51.994;4.448;2024-01-30T01:42:53;7.04;;;7.04;;
71290;SDS011;59073;51.994;4.448;2024-01-30T01:45:20;6.78;;;6.78;;
71290;SDS011;59073;51.994;4.448;2024-01-30T01:47:47;7.02;;;7.02;;
71290;SDS011;59073;51.994;4.448;2024-01-30T01:50:15;6.98;;;6.98;;
71290;SDS011;59073;51.994;4.448;2024-01-30T01:52:44;7.16;;;7.16;;
71290;SDS011;59073;51.994;4.448;2024-01-30T01:55:13;7.30;;;7.30;;
71290;SDS011;59073;51.994;4.448;2024-01-30T01:57:41;7.43;;;7.43;;
71290;SDS011;59073;51.994;4.448;2024-01-30T02:00:07;7.41;;;7.41;;
71290;SDS011;59073;51.994;4.448;2024-01-30T02:02:35;7.38;;;7.38;;
71290;SDS011;59073;51.994;4.448;2024-01-30T02:05:02;7.07;;;7.07;;
71290;SDS011;59073;51.994;4.448;2024-01-30T02:07:29;7.33;;;7.33;;
71290;SDS011;59073;51.994;4.448;2024-01-30T02:09:54;6.68;;;6.68;;
71290;SDS011;59073;51.994;4.448;2024-01-30T02:12:20;6.97;;;6.97;;
71290;SDS011;59073;51.994;4.448;2024-01-30T02:14:46;6.88;;;6.88;;
71290;SDS011;59073;51.994;4.448;2024-01-30T02:17:12;6.94;;;6.93;;
71290;SDS011;59073;51.994;4.448;2024-01-30T02:19:39;7.30;;;7.30;;
71290;SDS011;59073;51.994;4.448;2024-01-30T02:22:04;7.03;;;7.03;;
71290;SDS011;59073;51.994;4.448;2024-01-30T02:24:31;7.20;;;7.20;;
71290;SDS011;59073;51.994;4.448;2024-01-30T02:26:56;6.86;;;6.86;;
71290;SDS011;59073;51.994;4.448;2024-01-30T02:29:22;6.88;;;6.88;;
71290;SDS011;59073;51.994;4.448;2024-01-30T02:31:47;6.74;;;6.74;;
71290;SDS011;59073;51.994;4.448;2024-01-30T02:34:13;6.36;;;6.36;;
71290;SDS011;59073;51.994;4.448;2024-01-30T02:36:42;6.67;;;6.67;;
71290;SDS011;59073;51.994;4.448;2024-01-30T02:39:08;7.29;;;7.29;;
71290;SDS011;59073;51.994;4.448;2024-01-30T02:41:33;6.49;;;6.49;;
71290;SDS011;59073;51.994;4.448;2024-01-30T02:43:58;6.96;;;6.96;;
71290;SDS011;59073;51.994;4.448;2024-01-30T02:46:24;6.78;;;6.78;;
71290;SDS011;59073;51.994;4.448;2024-01-30T02:48:50;6.98;;;6.98;;
71290;SDS011;59073;51.994;4.448;2024-01-30T02:51:15;6.44;;;6.44;;
71290;SDS011;59073;51.994;4.448;2024-01-30T02:53:41;6.86;;;6.86;;
71290;SDS011;59073;51.994;4.448;2024-01-30T02:56:07;6.92;;;6.92;;
71290;SDS011;59073;51.994;4.448;2024-01-30T02:58:35;6.50;;;6.50;;
71290;SDS011;59073;51.994;4.448;2024-01-30T03:01:01;6.87;;;6.86;;
71290;SDS011;59073;51.994;4.448;2024-01-30T03:03:27;6.87;;;6.81;;
71290;SDS011;59073;51.994;4.448;2024-01-30T03:05:52;6.92;;;6.88;;
71290;SDS011;59073;51.994;4.448;2024-01-30T03:08:18;6.98;;;6.96;;
71290;SDS011;59073;51.994;4.448;2024-01-30T03:10:43;6.99;;;6.99;;
71290;SDS011;59073;51.994;4.448;2024-01-30T03:13:09;6.84;;;6.84;;
71290;SDS011;59073;51.994;4.448;2024-01-30T03:15:34;6.44;;;6.44;;
71290;SDS011;59073;51.994;4.448;2024-01-30T03:17:59;6.98;;;6.91;;
71290;SDS011;59073;51.994;4.448;2024-01-30T03:20:25;6.55;;;6.54;;
71290;SDS011;59073;51.994;4.448;2024-01-30T03:22:50;6.78;;;6.77;;
71290;SDS011;59073;51.994;4.448;2024-01-30T03:25:16;7.13;;;7.13;;
71290;SDS011;59073;51.994;4.448;2024-01-30T03:27:41;7.15;;;7.15;;
71290;SDS011;59073;51.994;4.448;2024-01-30T03:30:07;7.05;;;7.04;;
71290;SDS011;59073;51.994;4.448;2024-01-30T03:32:33;6.66;;;6.66;;
71290;SDS011;59073;51.994;4.448;2024-01-30T03:34:58;6.91;;;6.91;;
71290;SDS011;59073;51.994;4.448;2024-01-30T03:37:24;7.03;;;7.03;;
71290;SDS011;59073;51.994;4.448;2024-01-30T03:39:50;6.76;;;6.76;;
71290;SDS011;59073;51.994;4.448;2024-01-30T03:42:15;7.44;;;7.43;;
71290;SDS011;59073;51.994;4.448;2024-01-30T03:44:41;6.41;;;6.41;;
71290;SDS011;59073;51.994;4.448;2024-01-30T03:47:06;6.68;;;6.66;;
71290;SDS011;59073;51.994;4.448;2024-01-30T03:49:32;7.14;;;7.09;;
71290;SDS011;59073;51.994;4.448;2024-01-30T03:51:57;6.66;;;6.65;;
71290;SDS011;59073;51.994;4.448;2024-01-30T03:54:22;7.02;;;6.99;;
71290;SDS011;59073;51.994;4.448;2024-01-30T03:56:48;6.70;;;6.63;;
71290;SDS011;59073;51.994;4.448;2024-01-30T03:59:13;7.08;;;7.08;;
71290;SDS011;59073;51.994;4.448;2024-01-30T04:01:39;6.65;;;6.65;;
71290;SDS011;59073;51.994;4.448;2024-01-30T04:04:04;7.03;;;7.03;;
71290;SDS011;59073;51.994;4.448;2024-01-30T04:06:30;7.14;;;7.11;;
71290;SDS011;59073;51.994;4.448;2024-01-30T04:08:55;6.73;;;6.71;;
71290;SDS011;59073;51.994;4.448;2024-01-30T04:11:20;6.76;;;6.76;;
71290;SDS011;59073;51.994;4.448;2024-01-30T04:13:46;7.02;;;7.01;;
71290;SDS011;59073;51.994;4.448;2024-01-30T04:16:22;6.88;;;6.88;;
71290;SDS011;59073;51.994;4.448;2024-01-30T04:18:48;6.69;;;6.69;;
71290;SDS011;59073;51.994;4.448;2024-01-30T04:21:14;6.96;;;6.96;;
71290;SDS011;59073;51.994;4.448;2024-01-30T04:23:40;6.62;;;6.61;;
71290;SDS011;59073;51.994;4.448;2024-01-30T04:26:06;6.91;;;6.91;;
71290;SDS011;59073;51.994;4.448;2024-01-30T04:28:31;6.71;;;6.71;;
71290;SDS011;59073;51.994;4.448;2024-01-30T04:30:57;6.77;;;6.77;;
71290;SDS011;59073;51.994;4.448;2024-01-30T04:33:22;6.59;;;6.59;;
71290;SDS011;59073;51.994;4.448;2024-01-30T04:35:48;6.62;;;6.62;;
71290;SDS011;59073;51.994;4.448;2024-01-30T04:38:13;6.86;;;6.86;;
71290;SDS011;59073;51.994;4.448;2024-01-30T04:40:39;6.76;;;6.76;;
71290;SDS011;59073;51.994;4.448;2024-01-30T04:43:05;7.28;;;7.28;;
71290;SDS011;59073;51.994;4.448;2024-01-30T04:45:31;6.69;;;6.69;;
71290;SDS011;59073;51.994;4.448;2024-01-30T04:47:56;6.46;;;6.46;;
71290;SDS011;59073;51.994;4.448;2024-01-30T04:50:22;6.41;;;6.41;;
71290;SDS011;59073;51.994;4.448;2024-01-30T04:52:48;6.35;;;6.34;;
71290;SDS011;59073;51.994;4.448;2024-01-30T04:55:13;6.81;;;6.79;;
71290;SDS011;59073;51.994;4.448;2024-01-30T04:57:39;6.74;;;6.74;;
71290;SDS011;59073;51.994;4.448;2024-01-30T05:00:05;6.79;;;6.75;;
71290;SDS011;59073;51.994;4.448;2024-01-30T05:02:31;6.70;;;6.70;;
71290;SDS011;59073;51.994;4.448;2024-01-30T05:04:56;6.96;;;6.96;;
71290;SDS011;59073;51.994;4.448;2024-01-30T05:07:24;7.19;;;7.19;;
71290;SDS011;59073;51.994;4.448;2024-01-30T05:09:50;6.88;;;6.88;;
71290;SDS011;59073;51.994;4.448;2024-01-30T05:12:15;6.89;;;6.84;;
71290;SDS011;59073;51.994;4.448;2024-01-30T05:14:41;6.88;;;6.88;;
71290;SDS011;59073;51.994;4.448;2024-01-30T05:17:06;6.85;;;6.85;;
71290;SDS011;59073;51.994;4.448;2024-01-30T05:19:34;7.37;;;7.36;;
71290;SDS011;59073;51.994;4.448;2024-01-30T05:21:59;7.30;;;7.26;;
71290;SDS011;59073;51.994;4.448;2024-01-30T05:24:25;6.70;;;6.68;;
71290;SDS011;59073;51.994;4.448;2024-01-30T05:26:50;6.74;;;6.73;;
71290;SDS011;59073;51.994;4.448;2024-01-30T05:29:16;6.99;;;6.98;;
71290;SDS011;59073;51.994;4.448;2024-01-30T05:31:41;6.92;;;6.87;;
71290;SDS011;59073;51.994;4.448;2024-01-30T05:34:07;7.18;;;7.17;;
71290;SDS011;59073;51.994;4.448;2024-01-30T05:36:34;6.96;;;6.89;;
71290;SDS011;59073;51.994;4.448;2024-01-30T05:38:59;6.78;;;6.76;;
71290;SDS011;59073;51.994;4.448;2024-01-30T05:41:25;6.80;;;6.80;;
71290;SDS011;59073;51.994;4.448;2024-01-30T05:43:53;6.59;;;6.59;;
71290;SDS011;59073;51.994;4.448;2024-01-30T05:46:18;6.50;;;6.50;;
71290;SDS011;59073;51.994;4.448;2024-01-30T05:48:44;7.03;;;7.02;;
71290;SDS011;59073;51.994;4.448;2024-01-30T05:51:09;6.85;;;6.83;;
71290;SDS011;59073;51.994;4.448;2024-01-30T05:53:35;6.69;;;6.63;;
71290;SDS011;59073;51.994;4.448;2024-01-30T05:56:04;7.15;;;7.09;;
71290;SDS011;59073;51.994;4.448;2024-01-30T05:58:30;7.77;;;7.73;;
71290;SDS011;59073;51.994;4.448;2024-01-30T06:00:56;6.95;;;6.93;;
71290;SDS011;59073;51.994;4.448;2024-01-30T06:03:22;7.16;;;7.16;;
71290;SDS011;59073;51.994;4.448;2024-01-30T06:05:48;6.87;;;6.82;;
71290;SDS011;59073;51.994;4.448;2024-01-30T06:08:13;7.03;;;6.89;;
71290;SDS011;59073;51.994;4.448;2024-01-30T06:10:39;6.85;;;6.81;;
71290;SDS011;59073;51.994;4.448;2024-01-30T06:13:05;7.21;;;7.19;;
71290;SDS011;59073;51.994;4.448;2024-01-30T06:15:30;6.86;;;6.82;;
71290;SDS011;59073;51.994;4.448;2024-01-30T06:17:57;6.66;;;6.66;;
71290;SDS011;59073;51.994;4.448;2024-01-30T06:20:23;7.02;;;7.02;;
71290;SDS011;59073;51.994;4.448;2024-01-30T06:22:49;7.04;;;7.04;;
71290;SDS011;59073;51.994;4.448;2024-01-30T06:25:14;6.95;;;6.93;;
71290;SDS011;59073;51.994;4.448;2024-01-30T06:27:41;7.03;;;6.97;;
71290;SDS011;59073;51.994;4.448;2024-01-30T06:30:06;7.39;;;7.39;;
71290;SDS011;59073;51.994;4.448;2024-01-30T06:32:32;7.24;;;7.22;;
71290;SDS011;59073;51.994;4.448;2024-01-30T06:34:59;7.39;;;7.39;;
71290;SDS011;59073;51.994;4.448;2024-01-30T06:37:25;6.97;;;6.97;;
71290;SDS011;59073;51.994;4.448;2024-01-30T06:39:51;7.24;;;7.23;;
71290;SDS011;59073;51.994;4.448;2024-01-30T06:42:17;7.23;;;7.23;;
71290;SDS011;59073;51.994;4.448;2024-01-30T06:44:43;7.05;;;7.05;;
71290;SDS011;59073;51.994;4.448;2024-01-30T06:47:09;6.35;;;6.35;;
71290;SDS011;59073;51.994;4.448;2024-01-30T06:49:34;6.69;;;6.69;;
71290;SDS011;59073;51.994;4.448;2024-01-30T06:52:00;6.85;;;6.84;;
71290;SDS011;59073;51.994;4.448;2024-01-30T06:54:25;6.85;;;6.83;;
71290;SDS011;59073;51.994;4.448;2024-01-30T06:56:51;6.87;;;6.87;;
71290;SDS011;59073;51.994;4.448;2024-01-30T06:59:16;6.98;;;6.98;;
71290;SDS011;59073;51.994;4.448;2024-01-30T07:01:41;6.85;;;6.82;;
71290;SDS011;59073;51.994;4.448;2024-01-30T07:04:07;6.82;;;6.82;;
71290;SDS011;59073;51.994;4.448;2024-01-30T07:06:32;6.89;;;6.89;;
71290;SDS011;59073;51.994;4.448;2024-01-30T07:08:58;6.56;;;6.56;;
71290;SDS011;59073;51.994;4.448;2024-01-30T07:11:23;6.43;;;6.43;;
71290;SDS011;59073;51.994;4.448;2024-01-30T07:13:52;7.03;;;7.03;;
71290;SDS011;59073;51.994;4.448;2024-01-30T07:16:17;6.63;;;6.63;;
71290;SDS011;59073;51.994;4.448;2024-01-30T07:18:43;6.75;;;6.75;;
71290;SDS011;59073;51.994;4.448;2024-01-30T07:21:09;6.62;;;6.62;;
71290;SDS011;59073;51.994;4.448;2024-01-30T07:23:34;6.15;;;6.15;;
71290;SDS011;59073;51.994;4.448;2024-01-30T07:26:00;6.50;;;6.50;;
71290;SDS011;59073;51.994;4.448;2024-01-30T07:28:26;6.62;;;6.60;;
71290;SDS011;59073;51.994;4.448;2024-01-30T07:30:52;6.10;;;6.10;;
71290;SDS011;59073;51.994;4.448;2024-01-30T07:33:17;6.57;;;6.57;;
71290;SDS011;59073;51.994;4.448;2024-01-30T07:35:43;6.74;;;6.73;;
71290;SDS011;59073;51.994;4.448;2024-01-30T07:41:32;6.80;;;6.80;;
71290;SDS011;59073;51.994;4.448;2024-01-30T07:43:58;6.94;;;6.94;;
71290;SDS011;59073;51.994;4.448;2024-01-30T07:46:23;7.10;;;7.10;;
71290;SDS011;59073;51.994;4.448;2024-01-30T07:48:48;7.01;;;7.01;;
71290;SDS011;59073;51.994;4.448;2024-01-30T07:51:14;6.87;;;6.87;;
71290;SDS011;59073;51.994;4.448;2024-01-30T07:53:39;6.87;;;6.86;;
71290;SDS011;59073;51.994;4.448;2024-01-30T07:56:06;6.84;;;6.84;;
71290;SDS011;59073;51.994;4.448;2024-01-30T07:58:32;6.92;;;6.91;;
71290;SDS011;59073;51.994;4.448;2024-01-30T08:00:57;6.98;;;6.98;;
71290;SDS011;59073;51.994;4.448;2024-01-30T08:03:23;7.52;;;7.50;;
71290;SDS011;59073;51.994;4.448;2024-01-30T08:05:49;6.99;;;6.93;;
71290;SDS011;59073;51.994;4.448;2024-01-30T08:08:15;7.13;;;7.11;;
71290;SDS011;59073;51.994;4.448;2024-01-30T08:10:40;7.01;;;7.01;;
71290;SDS011;59073;51.994;4.448;2024-01-30T08:13:05;7.26;;;7.25;;
71290;SDS011;59073;51.994;4.448;2024-01-30T08:15:31;7.26;;;7.26;;
71290;SDS011;59073;51.994;4.448;2024-01-30T08:17:57;7.13;;;7.13;;
71290;SDS011;59073;51.994;4.448;2024-01-30T08:20:24;7.19;;;7.18;;
71290;SDS011;59073;51.994;4.448;2024-01-30T08:22:50;7.47;;;7.45;;
71290;SDS011;59073;51.994;4.448;2024-01-30T08:25:16;6.97;;;6.97;;
71290;SDS011;59073;51.994;4.448;2024-01-30T08:27:41;6.89;;;6.89;;
71290;SDS011;59073;51.994;4.448;2024-01-30T08:30:07;6.89;;;6.89;;
71290;SDS011;59073;51.994;4.448;2024-01-30T08:32:33;7.05;;;7.05;;
71290;SDS011;59073;51.994;4.448;2024-01-30T08:34:59;6.93;;;6.93;;
71290;SDS011;59073;51.994;4.448;2024-01-30T08:37:25;7.12;;;7.12;;
71290;SDS011;59073;51.994;4.448;2024-01-30T08:39:56;6.90;;;6.90;;
71290;SDS011;59073;51.994;4.448;2024-01-30T08:42:22;6.46;;;6.46;;
71290;SDS011;59073;51.994;4.448;2024-01-30T08:44:51;6.80;;;6.80;;
71290;SDS011;59073;51.994;4.448;2024-01-30T08:47:18;6.89;;;6.88;;
71290;SDS011;59073;51.994;4.448;2024-01-30T08:49:44;6.91;;;6.91;;
71290;SDS011;59073;51.994;4.448;2024-01-30T08:52:10;6.67;;;6.67;;
71290;SDS011;59073;51.994;4.448;2024-01-30T08:54:36;6.67;;;6.67;;
71290;SDS011;59073;51.994;4.448;2024-01-30T08:57:01;6.94;;;6.94;;
71290;SDS011;59073;51.994;4.448;2024-01-30T08:59:27;7.01;;;7.01;;
71290;SDS011;59073;51.994;4.448;2024-01-30T09:01:52;6.86;;;6.86;;
71290;SDS011;59073;51.994;4.448;2024-01-30T09:04:20;6.96;;;6.96;;
71290;SDS011;59073;51.994;4.448;2024-01-30T09:06:46;6.89;;;6.88;;
71290;SDS011;59073;51.994;4.448;2024-01-30T09:09:12;7.10;;;7.10;;
71290;SDS011;59073;51.994;4.448;2024-01-30T09:11:38;6.89;;;6.89;;
71290;SDS011;59073;51.994;4.448;2024-01-30T09:14:03;6.76;;;6.76;;
71290;SDS011;59073;51.994;4.448;2024-01-30T09:16:29;5.65;;;5.65;;
71290;SDS011;59073;51.994;4.448;2024-01-30T09:18:54;4.84;;;4.83;;
71290;SDS011;59073;51.994;4.448;2024-01-30T09:21:20;3.82;;;3.82;;
71290;SDS011;59073;51.994;4.448;2024-01-30T09:23:45;4.21;;;4.21;;
71290;SDS011;59073;51.994;4.448;2024-01-30T09:26:10;3.29;;;3.29;;
71290;SDS011;59073;51.994;4.448;2024-01-30T09:28:37;3.58;;;3.57;;
71290;SDS011;59073;51.994;4.448;2024-01-30T09:31:03;3.36;;;3.33;;
71290;SDS011;59073;51.994;4.448;2024-01-30T09:33:29;3.31;;;3.27;;
71290;SDS011;59073;51.994;4.448;2024-01-30T09:35:54;3.24;;;3.19;;
71290;SDS011;59073;51.994;4.448;2024-01-30T09:38:20;3.18;;;3.11;;
71290;SDS011;59073;51.994;4.448;2024-01-30T09:40:47;3.32;;;3.24;;
71290;SDS011;59073;51.994;4.448;2024-01-30T09:43:20;2.99;;;2.91;;
71290;SDS011;59073;51.994;4.448;2024-01-30T09:45:48;3.34;;;3.22;;
71290;SDS011;59073;51.994;4.448;2024-01-30T09:48:15;2.93;;;2.83;;
71290;SDS011;59073;51.994;4.448;2024-01-30T09:50:40;2.65;;;2.53;;
71290;SDS011;59073;51.994;4.448;2024-01-30T09:53:07;3.35;;;3.14;;
71290;SDS011;59073;51.994;4.448;2024-01-30T09:55:34;3.25;;;2.98;;
71290;SDS011;59073;51.994;4.448;2024-01-30T09:58:01;3.02;;;2.66;;
71290;SDS011;59073;51.994;4.448;2024-01-30T10:00:26;3.19;;;2.77;;
71290;SDS011;59073;51.994;4.448;2024-01-30T10:02:52;2.57;;;2.19;;
71290;SDS011;59073;51.994;4.448;2024-01-30T10:05:18;2.58;;;2.19;;
71290;SDS011;59073;51.994;4.448;2024-01-30T10:07:54;2.74;;;2.33;;
71290;SDS011;59073;51.994;4.448;2024-01-30T10:10:23;2.74;;;2.43;;
71290;SDS011;59073;51.994;4.448;2024-01-30T10:12:49;2.72;;;2.39;;
71290;SDS011;59073;51.994;4.448;2024-01-30T10:15:14;2.42;;;2.14;;
71290;SDS011;59073;51.994;4.448;2024-01-30T10:17:40;2.20;;;1.96;;
71290;SDS011;59073;51.994;4.448;2024-01-30T10:20:06;2.01;;;1.80;;
71290;SDS011;59073;51.994;4.448;2024-01-30T10:22:33;2.03;;;1.83;;
71290;SDS011;59073;51.994;4.448;2024-01-30T10:24:59;1.95;;;1.77;;
71290;SDS011;59073;51.994;4.448;2024-01-30T10:27:25;2.01;;;1.83;;
71290;SDS011;59073;51.994;4.448;2024-01-30T10:29:52;2.02;;;1.84;;
71290;SDS011;59073;51.994;4.448;2024-01-30T10:32:18;2.13;;;1.92;;
71290;SDS011;59073;51.994;4.448;2024-01-30T10:34:44;2.05;;;1.85;;
71290;SDS011;59073;51.994;4.448;2024-01-30T10:37:10;1.86;;;1.70;;
71290;SDS011;59073;51.994;4.448;2024-01-30T10:39:42;2.05;;;1.84;;
71290;SDS011;59073;51.994;4.448;2024-01-30T10:42:13;1.98;;;1.77;;
71290;SDS011;59073;51.994;4.448;2024-01-30T10:47:34;2.17;;;1.92;;
71290;SDS011;59073;51.994;4.448;2024-01-30T10:50:04;2.25;;;1.95;;
71290;SDS011;59073;51.994;4.448;2024-01-30T10:52:30;2.52;;;2.09;;
71290;SDS011;59073;51.994;4.448;2024-01-30T10:54:57;2.74;;;2.21;;
71290;SDS011;59073;51.994;4.448;2024-01-30T10:57:27;2.21;;;1.76;;
71290;SDS011;59073;51.994;4.448;2024-01-30T10:59:53;2.49;;;2.00;;
71290;SDS011;59073;51.994;4.448;2024-01-30T11:02:22;2.53;;;2.01;;
71290;SDS011;59073;51.994;4.448;2024-01-30T11:04:49;1.72;;;1.39;;
71290;SDS011;59073;51.994;4.448;2024-01-30T11:07:15;1.98;;;1.57;;
71290;SDS011;59073;51.994;4.448;2024-01-30T11:09:48;1.81;;;1.42;;
71290;SDS011;59073;51.994;4.448;2024-01-30T11:12:16;1.60;;;1.22;;
71290;SDS011;59073;51.994;4.448;2024-01-30T11:14:41;2.34;;;1.74;;
71290;SDS011;59073;51.994;4.448;2024-01-30T11:17:09;2.08;;;1.57;;
71290;SDS011;59073;51.994;4.448;2024-01-30T11:19:37;2.27;;;1.66;;
71290;SDS011;59073;51.994;4.448;2024-01-30T11:22:03;2.09;;;1.52;;
71290;SDS011;59073;51.994;4.448;2024-01-30T11:24:36;2.18;;;1.56;;
71290;SDS011;59073;51.994;4.448;2024-01-30T11:27:07;2.71;;;1.88;;
71290;SDS011;59073;51.994;4.448;2024-01-30T11:29:34;2.52;;;1.76;;
71290;SDS011;59073;51.994;4.448;2024-01-30T11:32:00;2.32;;;1.61;;
71290;SDS011;59073;51.994;4.448;2024-01-30T11:34:25;2.38;;;1.65;;
71290;SDS011;59073;51.994;4.448;2024-01-30T11:36:51;2.35;;;1.62;;
71290;SDS011;59073;51.994;4.448;2024-01-30T11:39:23;2.62;;;1.80;;
71290;SDS011;59073;51.994;4.448;2024-01-30T11:41:50;2.78;;;1.89;;
71290;SDS011;59073;51.994;4.448;2024-01-30T11:44:17;2.56;;;1.71;;
71290;SDS011;59073;51.994;4.448;2024-01-30T11:46:45;3.15;;;2.05;;
71290;SDS011;59073;51.994;4.448;2024-01-30T11:49:11;2.90;;;1.89;;
71290;SDS011;59073;51.994;4.448;2024-01-30T11:51:37;3.11;;;2.04;;
71290;SDS011;59073;51.994;4.448;2024-01-30T11:54:03;3.08;;;2.01;;
71290;SDS011;59073;51.994;4.448;2024-01-30T11:56:28;2.45;;;1.60;;
71290;SDS011;59073;51.994;4.448;2024-01-30T11:58:54;3.14;;;2.03;;
71290;SDS011;59073;51.994;4.448;2024-01-30T12:01:20;3.04;;;1.97;;
71290;SDS011;59073;51.994;4.448;2024-01-30T12:03:51;2.93;;;1.94;;
71290;SDS011;59073;51.994;4.448;2024-01-30T12:06:17;2.60;;;1.72;;
71290;SDS011;59073;51.994;4.448;2024-01-30T12:08:42;2.98;;;1.97;;
71290;SDS011;59073;51.994;4.448;2024-01-30T12:11:08;2.74;;;1.80;;
71290;SDS011;59073;51.994;4.448;2024-01-30T12:13:33;2.58;;;1.70;;
71290;SDS011;59073;51.994;4.448;2024-01-30T12:16:00;2.00;;;1.32;;
71290;SDS011;59073;51.994;4.448;2024-01-30T12:18:26;3.04;;;1.99;;
71290;SDS011;59073;51.994;4.448;2024-01-30T12:20:58;2.79;;;1.84;;
71290;SDS011;59073;51.994;4.448;2024-01-30T12:23:24;2.45;;;1.61;;
71290;SDS011;59073;51.994;4.448;2024-01-30T12:25:51;3.16;;;2.07;;
71290;SDS011;59073;51.994;4.448;2024-01-30T12:28:17;3.19;;;2.13;;
71290;SDS011;59073;51.994;4.448;2024-01-30T12:30:43;3.55;;;2.35;;
71290;SDS011;59073;51.994;4.448;2024-01-30T12:33:08;3.49;;;2.27;;
71290;SDS011;59073;51.994;4.448;2024-01-30T12:35:35;3.43;;;2.24;;
71290;SDS011;59073;51.994;4.448;2024-01-30T12:38:01;3.03;;;1.99;;
71290;SDS011;59073;51.994;4.448;2024-01-30T12:40:27;3.62;;;2.36;;
71290;SDS011;59073;51.994;4.448;2024-01-30T12:42:53;4.16;;;2.76;;
71290;SDS011;59073;51.994;4.448;2024-01-30T12:45:19;2.94;;;1.91;;
71290;SDS011;59073;51.994;4.448;2024-01-30T12:47:48;3.47;;;2.26;;
71290;SDS011;59073;51.994;4.448;2024-01-30T12:50:13;3.17;;;2.08;;
71290;SDS011;59073;51.994;4.448;2024-01-30T12:52:41;3.80;;;2.46;;
71290;SDS011;59073;51.994;4.448;2024-01-30T12:55:07;3.27;;;2.08;;
71290;SDS011;59073;51.994;4.448;2024-01-30T12:57:32;4.28;;;2.72;;
71290;SDS011;59073;51.994;4.448;2024-01-30T12:59:58;3.36;;;2.17;;
71290;SDS011;59073;51.994;4.448;2024-01-30T13:02:23;2.89;;;1.92;;
71290;SDS011;59073;51.994;4.448;2024-01-30T13:04:49;3.19;;;2.16;;
71290;SDS011;59073;51.994;4.448;2024-01-30T13:07:15;2.80;;;1.89;;
71290;SDS011;59073;51.994;4.448;2024-01-30T13:09:40;2.73;;;1.87;;
71290;SDS011;59073;51.994;4.448;2024-01-30T13:12:06;2.67;;;1.83;;
71290;SDS011;59073;51.994;4.448;2024-01-30T13:14:32;2.71;;;1.86;;
71290;SDS011;59073;51.994;4.448;2024-01-30T13:16:57;3.22;;;2.20;;
71290;SDS011;59073;51.994;4.448;2024-01-30T13:19:23;2.41;;;1.65;;
71290;SDS011;59073;51.994;4.448;2024-01-30T13:21:49;2.57;;;1.77;;
71290;SDS011;59073;51.994;4.448;2024-01-30T13:24:14;2.43;;;1.69;;
71290;SDS011;59073;51.994;4.448;2024-01-30T13:26:40;2.22;;;1.55;;
71290;SDS011;59073;51.994;4.448;2024-01-30T13:29:08;2.55;;;1.78;;
71290;SDS011;59073;51.994;4.448;2024-01-30T13:31:33;1.93;;;1.35;;
71290;SDS011;59073;51.994;4.448;2024-01-30T13:33:59;2.05;;;1.47;;
71290;SDS011;59073;51.994;4.448;2024-01-30T13:36:25;2.07;;;1.52;;
71290;SDS011;59073;51.994;4.448;2024-01-30T13:38:50;2.14;;;1.61;;
71290;SDS011;59073;51.994;4.448;2024-01-30T13:41:16;2.11;;;1.67;;
71290;SDS011;59073;51.994;4.448;2024-01-30T13:43:43;2.68;;;2.18;;
71290;SDS011;59073;51.994;4.448;2024-01-30T13:46:09;2.06;;;1.74;;
71290;SDS011;59073;51.994;4.448;2024-01-30T13:48:34;1.95;;;1.70;;
71290;SDS011;59073;51.994;4.448;2024-01-30T13:50:59;2.04;;;1.84;;
71290;SDS011;59073;51.994;4.448;2024-01-30T13:53:25;2.10;;;1.92;;
71290;SDS011;59073;51.994;4.448;2024-01-30T13:55:51;1.95;;;1.76;;
71290;SDS011;59073;51.994;4.448;2024-01-30T13:58:16;2.27;;;2.10;;
71290;SDS011;59073;51.994;4.448;2024-01-30T14:00:42;2.06;;;1.96;;
71290;SDS011;59073;51.994;4.448;2024-01-30T14:03:07;2.19;;;2.08;;
71290;SDS011;59073;51.994;4.448;2024-01-30T14:05:33;2.07;;;1.93;;
71290;SDS011;59073;51.994;4.448;2024-01-30T14:07:58;2.28;;;2.11;;
71290;SDS011;59073;51.994;4.448;2024-01-30T14:10:25;2.37;;;2.10;;
71290;SDS011;59073;51.994;4.448;2024-01-30T14:12:50;2.33;;;2.05;;
71290;SDS011;59073;51.994;4.448;2024-01-30T14:15:16;2.39;;;2.15;;
71290;SDS011;59073;51.994;4.448;2024-01-30T14:17:44;2.13;;;1.93;;
71290;SDS011;59073;51.994;4.448;2024-01-30T14:20:12;2.27;;;2.08;;
71290;SDS011;59073;51.994;4.448;2024-01-30T14:22:38;2.27;;;2.07;;
71290;SDS011;59073;51.994;4.448;2024-01-30T14:25:03;2.33;;;2.14;;
71290;SDS011;59073;51.994;4.448;2024-01-30T14:27:30;1.97;;;1.82;;
71290;SDS011;59073;51.994;4.448;2024-01-30T14:29:56;1.74;;;1.65;;
71290;SDS011;59073;51.994;4.448;2024-01-30T14:32:23;2.05;;;1.97;;
71290;SDS011;59073;51.994;4.448;2024-01-30T14:34:49;2.02;;;1.93;;
71290;SDS011;59073;51.994;4.448;2024-01-30T14:37:18;2.07;;;1.98;;
71290;SDS011;59073;51.994;4.448;2024-01-30T14:39:44;2.08;;;2.03;;
71290;SDS011;59073;51.994;4.448;2024-01-30T14:42:10;2.16;;;2.11;;
71290;SDS011;59073;51.994;4.448;2024-01-30T14:44:35;2.43;;;2.39;;
71290;SDS011;59073;51.994;4.448;2024-01-30T14:47:01;2.58;;;2.57;;